sensor_id;sensor_type;location;lat;lon;timestamp;temperature;humidity
53962;DHT22;39868;53.398;6.564;2023-04-24T00:02:06;14.20;78.50
53962;DHT22;39868;53.398;6.564;2023-04-24T00:04:38;14.20;78.60
53962;DHT22;39868;53.398;6.564;2023-04-24T00:07:08;14.10;78.50
53962;DHT22;39868;53.398;6.564;2023-04-24T00:09:35;14.10;78.50
53962;DHT22;39868;53.398;6.564;2023-04-24T00:12:03;14.10;78.50
53962;DHT22;39868;53.398;6.564;2023-04-24T00:14:31;14.10;78.60
53962;DHT22;39868;53.398;6.564;2023-04-24T00:16:59;14.10;78.60
53962;DHT22;39868;53.398;6.564;2023-04-24T00:19:26;14.20;78.60
53962;DHT22;39868;53.398;6.564;2023-04-24T00:21:53;14.20;78.70
53962;DHT22;39868;53.398;6.564;2023-04-24T00:24:21;14.20;78.70
53962;DHT22;39868;53.398;6.564;2023-04-24T00:26:48;14.20;78.70
53962;DHT22;39868;53.398;6.564;2023-04-24T00:29:15;14.20;78.70
53962;DHT22;39868;53.398;6.564;2023-04-24T00:31:43;14.20;78.80
53962;DHT22;39868;53.398;6.564;2023-04-24T00:34:10;14.20;78.90
53962;DHT22;39868;53.398;6.564;2023-04-24T00:36:38;14.20;78.80
53962;DHT22;39868;53.398;6.564;2023-04-24T00:39:06;14.20;78.80
53962;DHT22;39868;53.398;6.564;2023-04-24T00:41:36;14.20;78.80
53962;DHT22;39868;53.398;6.564;2023-04-24T00:44:03;14.20;78.80
53962;DHT22;39868;53.398;6.564;2023-04-24T00:46:31;14.20;78.80
53962;DHT22;39868;53.398;6.564;2023-04-24T00:48:59;14.20;78.90
53962;DHT22;39868;53.398;6.564;2023-04-24T00:51:26;14.30;78.90
53962;DHT22;39868;53.398;6.564;2023-04-24T00:53:54;14.30;78.90
53962;DHT22;39868;53.398;6.564;2023-04-24T00:56:22;14.30;78.90
53962;DHT22;39868;53.398;6.564;2023-04-24T00:58:50;14.30;78.90
53962;DHT22;39868;53.398;6.564;2023-04-24T01:01:19;14.30;78.80
53962;DHT22;39868;53.398;6.564;2023-04-24T01:03:51;14.40;78.90
53962;DHT22;39868;53.398;6.564;2023-04-24T01:06:19;14.40;78.80
53962;DHT22;39868;53.398;6.564;2023-04-24T01:08:48;14.40;78.80
53962;DHT22;39868;53.398;6.564;2023-04-24T01:11:15;14.40;78.70
53962;DHT22;39868;53.398;6.564;2023-04-24T01:13:45;14.40;78.70
53962;DHT22;39868;53.398;6.564;2023-04-24T01:16:14;14.40;78.60
53962;DHT22;39868;53.398;6.564;2023-04-24T01:18:42;14.40;78.60
53962;DHT22;39868;53.398;6.564;2023-04-24T01:21:13;14.40;78.50
53962;DHT22;39868;53.398;6.564;2023-04-24T01:23:40;14.40;78.60
53962;DHT22;39868;53.398;6.564;2023-04-24T01:26:07;14.40;78.40
53962;DHT22;39868;53.398;6.564;2023-04-24T01:28:36;14.40;78.30
53962;DHT22;39868;53.398;6.564;2023-04-24T01:31:05;14.30;78.30
53962;DHT22;39868;53.398;6.564;2023-04-24T01:33:33;14.30;78.20
53962;DHT22;39868;53.398;6.564;2023-04-24T01:36:00;14.30;78.20
53962;DHT22;39868;53.398;6.564;2023-04-24T01:38:28;14.30;78.10
53962;DHT22;39868;53.398;6.564;2023-04-24T01:40:55;14.20;78.00
53962;DHT22;39868;53.398;6.564;2023-04-24T01:43:24;14.20;78.00
53962;DHT22;39868;53.398;6.564;2023-04-24T01:45:51;14.20;78.00
53962;DHT22;39868;53.398;6.564;2023-04-24T01:48:19;14.10;77.90
53962;DHT22;39868;53.398;6.564;2023-04-24T01:50:46;14.10;77.90
53962;DHT22;39868;53.398;6.564;2023-04-24T01:53:14;14.10;77.90
53962;DHT22;39868;53.398;6.564;2023-04-24T01:55:42;14.00;77.90
53962;DHT22;39868;53.398;6.564;2023-04-24T01:58:12;14.00;78.00
53962;DHT22;39868;53.398;6.564;2023-04-24T02:00:40;14.00;78.00
53962;DHT22;39868;53.398;6.564;2023-04-24T02:03:07;13.90;78.00
53962;DHT22;39868;53.398;6.564;2023-04-24T02:05:35;13.90;78.00
53962;DHT22;39868;53.398;6.564;2023-04-24T02:08:02;13.90;78.00
53962;DHT22;39868;53.398;6.564;2023-04-24T02:10:30;13.80;78.00
53962;DHT22;39868;53.398;6.564;2023-04-24T02:12:58;13.80;78.00
53962;DHT22;39868;53.398;6.564;2023-04-24T02:15:26;13.80;78.00
53962;DHT22;39868;53.398;6.564;2023-04-24T02:17:53;13.80;78.00
53962;DHT22;39868;53.398;6.564;2023-04-24T02:20:21;13.80;78.00
53962;DHT22;39868;53.398;6.564;2023-04-24T02:22:48;13.80;78.00
53962;DHT22;39868;53.398;6.564;2023-04-24T02:25:17;13.70;78.00
53962;DHT22;39868;53.398;6.564;2023-04-24T02:27:45;13.70;78.00
53962;DHT22;39868;53.398;6.564;2023-04-24T02:30:13;13.70;78.00
53962;DHT22;39868;53.398;6.564;2023-04-24T02:32:41;13.70;78.10
53962;DHT22;39868;53.398;6.564;2023-04-24T02:35:10;13.70;78.10
53962;DHT22;39868;53.398;6.564;2023-04-24T02:37:37;13.70;78.10
53962;DHT22;39868;53.398;6.564;2023-04-24T02:40:05;13.70;78.20
53962;DHT22;39868;53.398;6.564;2023-04-24T02:42:32;13.60;78.10
53962;DHT22;39868;53.398;6.564;2023-04-24T02:45:00;13.60;78.20
53962;DHT22;39868;53.398;6.564;2023-04-24T02:47:27;13.60;78.20
53962;DHT22;39868;53.398;6.564;2023-04-24T02:49:55;13.60;78.20
53962;DHT22;39868;53.398;6.564;2023-04-24T02:52:22;13.60;78.20
53962;DHT22;39868;53.398;6.564;2023-04-24T02:54:49;13.60;78.30
53962;DHT22;39868;53.398;6.564;2023-04-24T02:57:17;13.60;78.40
53962;DHT22;39868;53.398;6.564;2023-04-24T02:59:44;13.60;78.40
53962;DHT22;39868;53.398;6.564;2023-04-24T03:02:11;13.60;78.40
53962;DHT22;39868;53.398;6.564;2023-04-24T03:04:39;13.60;78.50
53962;DHT22;39868;53.398;6.564;2023-04-24T03:07:07;13.60;78.50
53962;DHT22;39868;53.398;6.564;2023-04-24T03:09:34;13.60;78.60
53962;DHT22;39868;53.398;6.564;2023-04-24T03:12:01;13.60;78.60
53962;DHT22;39868;53.398;6.564;2023-04-24T03:14:30;13.60;78.60
53962;DHT22;39868;53.398;6.564;2023-04-24T03:16:58;13.60;78.60
53962;DHT22;39868;53.398;6.564;2023-04-24T03:19:26;13.50;78.60
53962;DHT22;39868;53.398;6.564;2023-04-24T03:22:02;13.60;78.70
53962;DHT22;39868;53.398;6.564;2023-04-24T03:24:30;13.60;78.80
53962;DHT22;39868;53.398;6.564;2023-04-24T03:26:58;13.60;78.80
53962;DHT22;39868;53.398;6.564;2023-04-24T03:29:42;13.60;78.90
53962;DHT22;39868;53.398;6.564;2023-04-24T03:32:11;13.60;78.90
53962;DHT22;39868;53.398;6.564;2023-04-24T03:34:38;13.60;78.90
53962;DHT22;39868;53.398;6.564;2023-04-24T03:37:07;13.60;79.00
53962;DHT22;39868;53.398;6.564;2023-04-24T03:39:39;13.60;79.10
53962;DHT22;39868;53.398;6.564;2023-04-24T03:42:07;13.60;79.00
53962;DHT22;39868;53.398;6.564;2023-04-24T03:44:45;13.60;79.10
53962;DHT22;39868;53.398;6.564;2023-04-24T03:47:13;13.60;79.10
53962;DHT22;39868;53.398;6.564;2023-04-24T03:49:40;13.60;79.10
53962;DHT22;39868;53.398;6.564;2023-04-24T03:52:10;13.60;79.20
53962;DHT22;39868;53.398;6.564;2023-04-24T03:54:37;13.60;79.30
53962;DHT22;39868;53.398;6.564;2023-04-24T03:57:05;13.60;79.30
53962;DHT22;39868;53.398;6.564;2023-04-24T03:59:35;13.60;79.30
53962;DHT22;39868;53.398;6.564;2023-04-24T04:02:12;13.60;79.40
53962;DHT22;39868;53.398;6.564;2023-04-24T04:04:40;13.60;79.40
53962;DHT22;39868;53.398;6.564;2023-04-24T04:07:08;13.60;79.40
53962;DHT22;39868;53.398;6.564;2023-04-24T04:09:35;13.60;79.50
53962;DHT22;39868;53.398;6.564;2023-04-24T04:12:02;13.60;79.50
53962;DHT22;39868;53.398;6.564;2023-04-24T04:14:31;13.60;79.50
53962;DHT22;39868;53.398;6.564;2023-04-24T04:16:59;13.60;79.50
53962;DHT22;39868;53.398;6.564;2023-04-24T04:19:26;13.60;79.50
53962;DHT22;39868;53.398;6.564;2023-04-24T04:21:54;13.60;79.50
53962;DHT22;39868;53.398;6.564;2023-04-24T04:24:35;13.60;79.50
53962;DHT22;39868;53.398;6.564;2023-04-24T04:27:05;13.60;79.50
53962;DHT22;39868;53.398;6.564;2023-04-24T04:29:40;13.70;79.60
53962;DHT22;39868;53.398;6.564;2023-04-24T04:32:10;13.70;79.70
53962;DHT22;39868;53.398;6.564;2023-04-24T04:34:38;13.70;79.60
53962;DHT22;39868;53.398;6.564;2023-04-24T04:37:10;13.70;79.70
53962;DHT22;39868;53.398;6.564;2023-04-24T04:39:47;13.70;79.70
53962;DHT22;39868;53.398;6.564;2023-04-24T04:42:19;13.70;79.80
53962;DHT22;39868;53.398;6.564;2023-04-24T04:44:47;13.70;79.70
53962;DHT22;39868;53.398;6.564;2023-04-24T04:47:21;13.70;79.80
53962;DHT22;39868;53.398;6.564;2023-04-24T04:49:53;13.70;79.80
53962;DHT22;39868;53.398;6.564;2023-04-24T04:52:25;13.80;79.40
53962;DHT22;39868;53.398;6.564;2023-04-24T04:55:05;13.80;79.70
53962;DHT22;39868;53.398;6.564;2023-04-24T04:57:52;13.70;79.60
53962;DHT22;39868;53.398;6.564;2023-04-24T05:00:22;13.70;79.60
53962;DHT22;39868;53.398;6.564;2023-04-24T05:02:52;13.70;79.60
53962;DHT22;39868;53.398;6.564;2023-04-24T05:05:22;13.80;79.60
53962;DHT22;39868;53.398;6.564;2023-04-24T05:07:49;13.70;79.60
53962;DHT22;39868;53.398;6.564;2023-04-24T05:10:17;13.80;79.70
53962;DHT22;39868;53.398;6.564;2023-04-24T05:12:45;13.70;79.50
53962;DHT22;39868;53.398;6.564;2023-04-24T05:15:12;13.70;79.50
53962;DHT22;39868;53.398;6.564;2023-04-24T05:17:39;13.60;79.40
53962;DHT22;39868;53.398;6.564;2023-04-24T05:20:09;13.60;79.50
53962;DHT22;39868;53.398;6.564;2023-04-24T05:22:37;13.60;79.50
53962;DHT22;39868;53.398;6.564;2023-04-24T05:25:05;13.60;79.50
53962;DHT22;39868;53.398;6.564;2023-04-24T05:27:44;13.50;79.60
53962;DHT22;39868;53.398;6.564;2023-04-24T05:30:15;13.50;79.70
53962;DHT22;39868;53.398;6.564;2023-04-24T05:32:42;13.50;79.90
53962;DHT22;39868;53.398;6.564;2023-04-24T05:35:09;13.50;79.90
53962;DHT22;39868;53.398;6.564;2023-04-24T05:37:37;13.40;79.80
53962;DHT22;39868;53.398;6.564;2023-04-24T05:40:05;13.40;80.00
53962;DHT22;39868;53.398;6.564;2023-04-24T05:42:33;13.40;80.10
53962;DHT22;39868;53.398;6.564;2023-04-24T05:45:00;13.40;80.10
53962;DHT22;39868;53.398;6.564;2023-04-24T05:47:27;13.40;80.10
53962;DHT22;39868;53.398;6.564;2023-04-24T05:49:54;13.40;80.20
53962;DHT22;39868;53.398;6.564;2023-04-24T05:52:22;13.30;80.30
53962;DHT22;39868;53.398;6.564;2023-04-24T05:54:50;13.30;80.30
53962;DHT22;39868;53.398;6.564;2023-04-24T05:57:21;13.30;80.40
53962;DHT22;39868;53.398;6.564;2023-04-24T05:59:53;13.30;80.40
53962;DHT22;39868;53.398;6.564;2023-04-24T06:02:22;13.30;80.50
53962;DHT22;39868;53.398;6.564;2023-04-24T06:04:51;13.20;80.60
53962;DHT22;39868;53.398;6.564;2023-04-24T06:07:19;13.20;80.70
53962;DHT22;39868;53.398;6.564;2023-04-24T06:09:46;13.20;80.90
53962;DHT22;39868;53.398;6.564;2023-04-24T06:12:15;13.20;80.90
53962;DHT22;39868;53.398;6.564;2023-04-24T06:15:03;13.20;81.00
53962;DHT22;39868;53.398;6.564;2023-04-24T06:17:48;13.20;81.00
53962;DHT22;39868;53.398;6.564;2023-04-24T06:20:17;13.20;81.10
53962;DHT22;39868;53.398;6.564;2023-04-24T06:22:44;13.20;81.20
53962;DHT22;39868;53.398;6.564;2023-04-24T06:25:11;13.20;81.20
53962;DHT22;39868;53.398;6.564;2023-04-24T06:27:39;13.20;81.30
53962;DHT22;39868;53.398;6.564;2023-04-24T06:30:08;13.20;81.40
53962;DHT22;39868;53.398;6.564;2023-04-24T06:32:36;13.20;81.50
53962;DHT22;39868;53.398;6.564;2023-04-24T06:35:03;13.20;81.30
53962;DHT22;39868;53.398;6.564;2023-04-24T06:37:31;13.10;81.40
53962;DHT22;39868;53.398;6.564;2023-04-24T06:39:59;13.20;81.70
53962;DHT22;39868;53.398;6.564;2023-04-24T06:42:26;13.20;81.70
53962;DHT22;39868;53.398;6.564;2023-04-24T06:44:55;13.20;81.70
53962;DHT22;39868;53.398;6.564;2023-04-24T06:47:22;13.20;81.80
53962;DHT22;39868;53.398;6.564;2023-04-24T06:49:49;13.20;82.00
53962;DHT22;39868;53.398;6.564;2023-04-24T06:52:19;13.20;82.10
53962;DHT22;39868;53.398;6.564;2023-04-24T06:54:47;13.20;82.20
53962;DHT22;39868;53.398;6.564;2023-04-24T06:57:15;13.20;82.20
53962;DHT22;39868;53.398;6.564;2023-04-24T06:59:43;13.20;82.30
53962;DHT22;39868;53.398;6.564;2023-04-24T07:02:11;13.20;82.30
53962;DHT22;39868;53.398;6.564;2023-04-24T07:04:38;13.20;82.40
53962;DHT22;39868;53.398;6.564;2023-04-24T07:07:05;13.20;82.30
53962;DHT22;39868;53.398;6.564;2023-04-24T07:09:33;13.20;82.70
53962;DHT22;39868;53.398;6.564;2023-04-24T07:12:02;13.20;82.20
53962;DHT22;39868;53.398;6.564;2023-04-24T07:14:29;13.10;82.10
53962;DHT22;39868;53.398;6.564;2023-04-24T07:16:57;13.10;82.10
53962;DHT22;39868;53.398;6.564;2023-04-24T07:19:24;13.10;82.20
53962;DHT22;39868;53.398;6.564;2023-04-24T07:21:51;13.00;82.20
53962;DHT22;39868;53.398;6.564;2023-04-24T07:24:20;13.00;82.20
53962;DHT22;39868;53.398;6.564;2023-04-24T07:26:51;13.00;82.10
53962;DHT22;39868;53.398;6.564;2023-04-24T07:29:19;13.00;82.10
53962;DHT22;39868;53.398;6.564;2023-04-24T07:31:46;13.00;82.10
53962;DHT22;39868;53.398;6.564;2023-04-24T07:34:14;12.90;82.10
53962;DHT22;39868;53.398;6.564;2023-04-24T07:36:41;12.90;82.10
53962;DHT22;39868;53.398;6.564;2023-04-24T07:39:09;12.90;82.30
53962;DHT22;39868;53.398;6.564;2023-04-24T07:41:36;12.90;82.40
53962;DHT22;39868;53.398;6.564;2023-04-24T07:44:03;12.90;82.40
53962;DHT22;39868;53.398;6.564;2023-04-24T07:46:31;12.80;82.20
53962;DHT22;39868;53.398;6.564;2023-04-24T07:48:59;12.80;82.20
53962;DHT22;39868;53.398;6.564;2023-04-24T07:51:39;12.80;82.30
53962;DHT22;39868;53.398;6.564;2023-04-24T07:54:07;12.80;82.30
53962;DHT22;39868;53.398;6.564;2023-04-24T07:56:34;12.80;82.30
53962;DHT22;39868;53.398;6.564;2023-04-24T07:59:06;12.80;82.40
53962;DHT22;39868;53.398;6.564;2023-04-24T08:01:33;12.70;82.40
53962;DHT22;39868;53.398;6.564;2023-04-24T08:04:00;12.70;82.40
53962;DHT22;39868;53.398;6.564;2023-04-24T08:06:29;12.70;82.40
53962;DHT22;39868;53.398;6.564;2023-04-24T08:08:58;12.80;82.40
53962;DHT22;39868;53.398;6.564;2023-04-24T08:11:26;12.70;82.30
53962;DHT22;39868;53.398;6.564;2023-04-24T08:13:53;12.70;82.40
53962;DHT22;39868;53.398;6.564;2023-04-24T08:16:22;12.70;82.40
53962;DHT22;39868;53.398;6.564;2023-04-24T08:18:51;12.80;82.50
53962;DHT22;39868;53.398;6.564;2023-04-24T08:21:19;12.80;82.60
53962;DHT22;39868;53.398;6.564;2023-04-24T08:23:47;12.80;83.10
53962;DHT22;39868;53.398;6.564;2023-04-24T08:26:15;12.80;82.50
53962;DHT22;39868;53.398;6.564;2023-04-24T08:28:43;12.70;82.30
53962;DHT22;39868;53.398;6.564;2023-04-24T08:31:10;12.70;82.20
53962;DHT22;39868;53.398;6.564;2023-04-24T08:33:37;12.70;82.10
53962;DHT22;39868;53.398;6.564;2023-04-24T08:36:05;12.70;82.00
53962;DHT22;39868;53.398;6.564;2023-04-24T08:38:33;12.70;82.00
53962;DHT22;39868;53.398;6.564;2023-04-24T08:41:01;12.70;81.90
53962;DHT22;39868;53.398;6.564;2023-04-24T08:43:28;12.60;81.90
53962;DHT22;39868;53.398;6.564;2023-04-24T08:45:57;12.60;81.90
53962;DHT22;39868;53.398;6.564;2023-04-24T08:48:26;12.60;81.80
53962;DHT22;39868;53.398;6.564;2023-04-24T08:50:59;12.50;81.60
53962;DHT22;39868;53.398;6.564;2023-04-24T08:53:26;12.50;81.60
53962;DHT22;39868;53.398;6.564;2023-04-24T08:55:55;12.40;81.40
53962;DHT22;39868;53.398;6.564;2023-04-24T08:58:25;12.40;81.30
53962;DHT22;39868;53.398;6.564;2023-04-24T09:00:57;12.40;81.30
53962;DHT22;39868;53.398;6.564;2023-04-24T09:03:27;12.30;81.70
53962;DHT22;39868;53.398;6.564;2023-04-24T09:05:55;12.30;81.20
53962;DHT22;39868;53.398;6.564;2023-04-24T09:08:25;12.30;81.20
53962;DHT22;39868;53.398;6.564;2023-04-24T09:10:53;12.30;81.20
53962;DHT22;39868;53.398;6.564;2023-04-24T09:13:20;12.30;81.10
53962;DHT22;39868;53.398;6.564;2023-04-24T09:15:48;12.30;81.00
53962;DHT22;39868;53.398;6.564;2023-04-24T09:18:16;12.20;80.90
53962;DHT22;39868;53.398;6.564;2023-04-24T09:21:03;12.20;80.90
53962;DHT22;39868;53.398;6.564;2023-04-24T09:23:32;12.20;81.50
53962;DHT22;39868;53.398;6.564;2023-04-24T09:26:01;12.20;80.90
53962;DHT22;39868;53.398;6.564;2023-04-24T09:28:37;12.20;80.90
53962;DHT22;39868;53.398;6.564;2023-04-24T09:31:14;12.20;81.00
53962;DHT22;39868;53.398;6.564;2023-04-24T09:34:03;12.20;80.80
53962;DHT22;39868;53.398;6.564;2023-04-24T09:36:39;12.20;80.80
53962;DHT22;39868;53.398;6.564;2023-04-24T09:39:12;12.30;80.90
53962;DHT22;39868;53.398;6.564;2023-04-24T09:41:54;12.30;80.90
53962;DHT22;39868;53.398;6.564;2023-04-24T09:44:26;12.30;80.90
53962;DHT22;39868;53.398;6.564;2023-04-24T09:46:58;12.30;80.80
53962;DHT22;39868;53.398;6.564;2023-04-24T09:49:27;12.30;80.70
53962;DHT22;39868;53.398;6.564;2023-04-24T09:52:04;12.40;80.60
53962;DHT22;39868;53.398;6.564;2023-04-24T09:54:32;12.40;80.40
53962;DHT22;39868;53.398;6.564;2023-04-24T09:57:00;12.40;80.30
53962;DHT22;39868;53.398;6.564;2023-04-24T09:59:27;12.40;79.80
53962;DHT22;39868;53.398;6.564;2023-04-24T10:01:55;12.40;79.70
53962;DHT22;39868;53.398;6.564;2023-04-24T10:04:26;12.40;79.70
53962;DHT22;39868;53.398;6.564;2023-04-24T10:06:56;12.50;79.50
53962;DHT22;39868;53.398;6.564;2023-04-24T10:09:25;12.50;79.20
53962;DHT22;39868;53.398;6.564;2023-04-24T10:11:54;12.50;78.80
53962;DHT22;39868;53.398;6.564;2023-04-24T10:14:23;12.50;78.60
53962;DHT22;39868;53.398;6.564;2023-04-24T10:16:53;12.60;78.60
53962;DHT22;39868;53.398;6.564;2023-04-24T10:19:21;12.60;78.40
53962;DHT22;39868;53.398;6.564;2023-04-24T10:21:52;12.70;78.50
53962;DHT22;39868;53.398;6.564;2023-04-24T10:24:25;12.70;78.10
53962;DHT22;39868;53.398;6.564;2023-04-24T10:26:54;12.80;78.20
53962;DHT22;39868;53.398;6.564;2023-04-24T10:29:21;12.80;78.20
53962;DHT22;39868;53.398;6.564;2023-04-24T10:31:49;12.80;78.30
53962;DHT22;39868;53.398;6.564;2023-04-24T10:34:17;12.80;77.60
53962;DHT22;39868;53.398;6.564;2023-04-24T10:36:51;12.80;77.00
53962;DHT22;39868;53.398;6.564;2023-04-24T10:39:23;12.80;77.20
53962;DHT22;39868;53.398;6.564;2023-04-24T10:41:54;12.90;77.30
53962;DHT22;39868;53.398;6.564;2023-04-24T10:44:24;12.90;77.40
53962;DHT22;39868;53.398;6.564;2023-04-24T10:46:55;12.90;77.30
53962;DHT22;39868;53.398;6.564;2023-04-24T10:49:30;12.90;77.00
53962;DHT22;39868;53.398;6.564;2023-04-24T10:52:02;13.00;77.10
53962;DHT22;39868;53.398;6.564;2023-04-24T10:54:36;13.00;77.00
53962;DHT22;39868;53.398;6.564;2023-04-24T10:59:52;13.00;76.70
53962;DHT22;39868;53.398;6.564;2023-04-24T11:02:38;13.00;76.30
53962;DHT22;39868;53.398;6.564;2023-04-24T11:05:07;13.00;76.60
53962;DHT22;39868;53.398;6.564;2023-04-24T11:08:13;13.10;76.80
53962;DHT22;39868;53.398;6.564;2023-04-24T11:10:55;13.20;77.10
53962;DHT22;39868;53.398;6.564;2023-04-24T11:13:27;13.30;77.10
53962;DHT22;39868;53.398;6.564;2023-04-24T11:16:14;13.40;77.50
53962;DHT22;39868;53.398;6.564;2023-04-24T11:18:43;13.50;77.40
53962;DHT22;39868;53.398;6.564;2023-04-24T11:21:18;13.60;77.40
53962;DHT22;39868;53.398;6.564;2023-04-24T11:23:45;13.70;77.20
53962;DHT22;39868;53.398;6.564;2023-04-24T11:26:18;13.80;76.70
53962;DHT22;39868;53.398;6.564;2023-04-24T11:28:48;13.90;76.80
53962;DHT22;39868;53.398;6.564;2023-04-24T11:34:10;14.10;75.90
53962;DHT22;39868;53.398;6.564;2023-04-24T11:36:38;14.20;75.80
53962;DHT22;39868;53.398;6.564;2023-04-24T11:39:05;14.30;75.30
53962;DHT22;39868;53.398;6.564;2023-04-24T11:41:33;14.30;75.30
53962;DHT22;39868;53.398;6.564;2023-04-24T11:44:03;14.30;75.10
53962;DHT22;39868;53.398;6.564;2023-04-24T11:46:31;14.40;74.30
53962;DHT22;39868;53.398;6.564;2023-04-24T11:48:59;14.40;74.20
53962;DHT22;39868;53.398;6.564;2023-04-24T11:51:27;14.40;74.10
53962;DHT22;39868;53.398;6.564;2023-04-24T11:54:07;14.40;73.30
53962;DHT22;39868;53.398;6.564;2023-04-24T11:56:34;14.30;72.60
53962;DHT22;39868;53.398;6.564;2023-04-24T11:59:04;14.30;72.30
53962;DHT22;39868;53.398;6.564;2023-04-24T12:01:44;14.20;72.00
53962;DHT22;39868;53.398;6.564;2023-04-24T12:04:13;14.20;72.30
53962;DHT22;39868;53.398;6.564;2023-04-24T12:06:59;14.10;72.30
53962;DHT22;39868;53.398;6.564;2023-04-24T12:09:27;14.10;72.60
53962;DHT22;39868;53.398;6.564;2023-04-24T12:11:58;14.10;72.90
53962;DHT22;39868;53.398;6.564;2023-04-24T12:14:25;14.00;72.30
53962;DHT22;39868;53.398;6.564;2023-04-24T12:16:53;13.90;72.40
53962;DHT22;39868;53.398;6.564;2023-04-24T12:19:23;13.90;72.60
53962;DHT22;39868;53.398;6.564;2023-04-24T12:22:01;13.90;72.80
53962;DHT22;39868;53.398;6.564;2023-04-24T12:24:29;13.90;72.60
53962;DHT22;39868;53.398;6.564;2023-04-24T12:26:58;13.90;72.60
53962;DHT22;39868;53.398;6.564;2023-04-24T12:29:25;13.80;72.70
53962;DHT22;39868;53.398;6.564;2023-04-24T12:31:54;13.80;73.20
53962;DHT22;39868;53.398;6.564;2023-04-24T12:34:23;13.90;73.40
53962;DHT22;39868;53.398;6.564;2023-04-24T12:36:51;13.90;73.50
53962;DHT22;39868;53.398;6.564;2023-04-24T12:39:19;13.90;73.30
53962;DHT22;39868;53.398;6.564;2023-04-24T12:41:56;13.90;73.20
53962;DHT22;39868;53.398;6.564;2023-04-24T12:44:34;13.90;72.60
53962;DHT22;39868;53.398;6.564;2023-04-24T12:47:02;13.90;72.50
53962;DHT22;39868;53.398;6.564;2023-04-24T12:49:30;13.80;72.20
53962;DHT22;39868;53.398;6.564;2023-04-24T12:51:58;13.70;71.90
53962;DHT22;39868;53.398;6.564;2023-04-24T12:54:25;13.70;72.10
53962;DHT22;39868;53.398;6.564;2023-04-24T12:56:53;13.60;72.30
53962;DHT22;39868;53.398;6.564;2023-04-24T12:59:20;13.60;72.40
53962;DHT22;39868;53.398;6.564;2023-04-24T13:01:47;13.60;72.50
53962;DHT22;39868;53.398;6.564;2023-04-24T13:04:14;13.50;72.50
53962;DHT22;39868;53.398;6.564;2023-04-24T13:06:44;13.50;72.50
53962;DHT22;39868;53.398;6.564;2023-04-24T13:09:11;13.60;72.90
53962;DHT22;39868;53.398;6.564;2023-04-24T13:11:38;13.60;73.20
53962;DHT22;39868;53.398;6.564;2023-04-24T13:14:05;13.60;73.10
53962;DHT22;39868;53.398;6.564;2023-04-24T13:16:33;13.60;73.20
53962;DHT22;39868;53.398;6.564;2023-04-24T13:19:01;13.60;73.20
53962;DHT22;39868;53.398;6.564;2023-04-24T13:21:29;13.60;73.20
53962;DHT22;39868;53.398;6.564;2023-04-24T13:23:57;13.60;73.00
53962;DHT22;39868;53.398;6.564;2023-04-24T13:26:25;13.60;72.70
53962;DHT22;39868;53.398;6.564;2023-04-24T13:28:52;13.50;72.50
53962;DHT22;39868;53.398;6.564;2023-04-24T13:31:19;13.50;72.40
53962;DHT22;39868;53.398;6.564;2023-04-24T13:33:46;13.40;72.40
53962;DHT22;39868;53.398;6.564;2023-04-24T13:36:14;13.40;72.40
53962;DHT22;39868;53.398;6.564;2023-04-24T13:38:41;13.30;72.60
53962;DHT22;39868;53.398;6.564;2023-04-24T13:41:08;13.30;72.70
53962;DHT22;39868;53.398;6.564;2023-04-24T13:43:36;13.40;73.10
53962;DHT22;39868;53.398;6.564;2023-04-24T13:46:03;13.40;73.00
53962;DHT22;39868;53.398;6.564;2023-04-24T13:48:31;13.40;73.10
53962;DHT22;39868;53.398;6.564;2023-04-24T13:50:58;13.50;73.20
53962;DHT22;39868;53.398;6.564;2023-04-24T13:53:26;13.50;72.90
53962;DHT22;39868;53.398;6.564;2023-04-24T13:55:53;13.60;72.80
53962;DHT22;39868;53.398;6.564;2023-04-24T13:58:20;13.60;72.90
53962;DHT22;39868;53.398;6.564;2023-04-24T14:00:47;13.60;72.60
53962;DHT22;39868;53.398;6.564;2023-04-24T14:03:15;13.60;72.60
53962;DHT22;39868;53.398;6.564;2023-04-24T14:05:42;13.60;72.40
53962;DHT22;39868;53.398;6.564;2023-04-24T14:08:10;13.60;72.50
53962;DHT22;39868;53.398;6.564;2023-04-24T14:10:37;13.60;72.70
53962;DHT22;39868;53.398;6.564;2023-04-24T14:13:04;13.50;72.70
53962;DHT22;39868;53.398;6.564;2023-04-24T14:15:32;13.50;72.90
53962;DHT22;39868;53.398;6.564;2023-04-24T14:18:00;13.40;73.00
53962;DHT22;39868;53.398;6.564;2023-04-24T14:20:29;13.40;73.20
53962;DHT22;39868;53.398;6.564;2023-04-24T14:22:56;13.30;73.30
53962;DHT22;39868;53.398;6.564;2023-04-24T14:25:26;13.20;73.20
53962;DHT22;39868;53.398;6.564;2023-04-24T14:27:53;13.20;73.40
53962;DHT22;39868;53.398;6.564;2023-04-24T14:30:21;13.20;73.50
53962;DHT22;39868;53.398;6.564;2023-04-24T14:32:48;13.10;73.60
53962;DHT22;39868;53.398;6.564;2023-04-24T14:35:16;13.10;73.70
53962;DHT22;39868;53.398;6.564;2023-04-24T14:37:44;13.00;73.90
53962;DHT22;39868;53.398;6.564;2023-04-24T14:40:11;13.00;74.00
53962;DHT22;39868;53.398;6.564;2023-04-24T14:42:58;12.90;74.00
53962;DHT22;39868;53.398;6.564;2023-04-24T14:45:26;12.90;74.10
53962;DHT22;39868;53.398;6.564;2023-04-24T14:47:55;12.80;74.30
53962;DHT22;39868;53.398;6.564;2023-04-24T14:50:23;12.70;74.40
53962;DHT22;39868;53.398;6.564;2023-04-24T14:52:50;12.70;74.50
53962;DHT22;39868;53.398;6.564;2023-04-24T14:55:18;12.60;74.60
53962;DHT22;39868;53.398;6.564;2023-04-24T14:57:45;12.60;74.70
53962;DHT22;39868;53.398;6.564;2023-04-24T15:00:13;12.60;75.00
53962;DHT22;39868;53.398;6.564;2023-04-24T15:02:40;12.60;75.20
53962;DHT22;39868;53.398;6.564;2023-04-24T15:05:11;12.60;75.40
53962;DHT22;39868;53.398;6.564;2023-04-24T15:07:39;12.60;75.60
53962;DHT22;39868;53.398;6.564;2023-04-24T15:10:09;12.60;75.80
53962;DHT22;39868;53.398;6.564;2023-04-24T15:12:36;12.60;75.80
53962;DHT22;39868;53.398;6.564;2023-04-24T15:15:04;12.60;75.60
53962;DHT22;39868;53.398;6.564;2023-04-24T15:17:32;12.60;75.70
53962;DHT22;39868;53.398;6.564;2023-04-24T15:19:59;12.60;75.80
53962;DHT22;39868;53.398;6.564;2023-04-24T15:22:27;12.50;75.90
53962;DHT22;39868;53.398;6.564;2023-04-24T15:24:55;12.50;75.90
53962;DHT22;39868;53.398;6.564;2023-04-24T15:27:23;12.50;75.90
53962;DHT22;39868;53.398;6.564;2023-04-24T15:29:50;12.50;76.00
53962;DHT22;39868;53.398;6.564;2023-04-24T15:32:17;12.50;76.10
53962;DHT22;39868;53.398;6.564;2023-04-24T15:34:45;12.50;76.10
53962;DHT22;39868;53.398;6.564;2023-04-24T15:37:15;12.50;76.10
53962;DHT22;39868;53.398;6.564;2023-04-24T15:39:44;12.50;76.10
53962;DHT22;39868;53.398;6.564;2023-04-24T15:42:12;12.40;76.20
53962;DHT22;39868;53.398;6.564;2023-04-24T15:44:39;12.40;76.30
53962;DHT22;39868;53.398;6.564;2023-04-24T15:47:06;12.40;76.30
53962;DHT22;39868;53.398;6.564;2023-04-24T15:49:34;12.50;76.40